Time;durP1;ratioP1;P1;durP2;ratioP2;P2;SDS_P1;SDS_P2;PMS_P1;PMS_P2;Temp;Humidity;BMP_temperature;BMP_pressure;BME280_temperature;BME280_humidity;BME280_pressure;Samples;Min_cycle;Max_cycle;Signal;HPM_P1;HPM_P2
2022/01/02 00:01:45;;;;;;;16.00;8.97;;;8.80;99.90;;;;;;5023114;28;20192;-65
2022/01/02 00:04:16;;;;;;;16.30;9.07;;;8.80;99.90;;;;;;5022305;28;20521;-70
2022/01/02 00:07:04;;;;;;;13.87;8.00;;;8.70;99.90;;;;;;5021010;28;20589;-65
2022/01/02 00:09:34;;;;;;;11.87;7.43;;;8.70;99.90;;;;;;5031483;28;20181;-67
2022/01/02 00:12:07;;;;;;;15.97;8.03;;;8.80;99.90;;;;;;5029431;28;20185;-64
2022/01/02 00:14:35;;;;;;;14.53;8.20;;;8.70;99.90;;;;;;5024125;28;20268;-64
2022/01/02 00:17:06;;;;;;;16.10;8.07;;;8.60;99.90;;;;;;5026746;28;20312;-67
2022/01/02 00:19:34;;;;;;;9.93;6.50;;;8.50;99.90;;;;;;5027295;28;20195;-66
2022/01/02 00:22:04;;;;;;;16.83;7.47;;;8.40;99.90;;;;;;5027028;28;20191;-65
2022/01/02 00:24:31;;;;;;;12.43;6.60;;;8.20;99.90;;;;;;5023868;28;20315;-64
2022/01/02 00:26:58;;;;;;;14.33;6.90;;;8.10;99.90;;;;;;5016197;28;21033;-69
2022/01/02 00:29:24;;;;;;;9.43;5.97;;;8.10;99.90;;;;;;5013094;28;20316;-68
2022/01/02 00:31:52;;;;;;;7.33;5.07;;;8.20;99.90;;;;;;5017285;28;20216;-71
2022/01/02 00:34:18;;;;;;;12.77;5.73;;;8.20;99.90;;;;;;5010928;28;20245;-64
2022/01/02 00:36:44;;;;;;;9.40;5.60;;;8.00;99.90;;;;;;5020959;28;20735;-65
2022/01/02 00:39:10;;;;;;;8.03;5.10;;;8.10;99.90;;;;;;5020892;28;20291;-65
2022/01/02 00:41:52;;;;;;;8.53;5.67;;;8.10;99.90;;;;;;5018492;28;20393;-68
2022/01/02 00:44:25;;;;;;;12.33;5.50;;;8.10;99.90;;;;;;5022789;28;20185;-65
2022/01/02 00:46:59;;;;;;;11.03;6.40;;;8.00;99.90;;;;;;5023503;28;20189;-73
2022/01/02 00:49:26;;;;;;;9.43;5.80;;;8.00;99.90;;;;;;5023698;28;20304;-65
2022/01/02 00:52:07;;;;;;;9.70;6.03;;;8.10;99.90;;;;;;5024095;28;20641;-64
2022/01/02 00:54:36;;;;;;;8.33;5.73;;;8.00;99.90;;;;;;5022752;28;20196;-64
2022/01/02 00:57:13;;;;;;;11.50;5.43;;;8.00;99.90;;;;;;5024311;28;20204;-63
2022/01/02 00:59:55;;;;;;;9.50;6.20;;;8.00;99.90;;;;;;5024276;28;20192;-68
2022/01/02 01:02:31;;;;;;;11.07;5.70;;;7.90;99.90;;;;;;5026871;28;20568;-65
2022/01/02 01:05:00;;;;;;;8.93;5.83;;;7.80;99.90;;;;;;5024101;28;20191;-68
2022/01/02 01:07:27;;;;;;;8.50;5.47;;;7.90;99.90;;;;;;5022766;28;20625;-64
2022/01/02 01:09:56;;;;;;;9.20;5.10;;;7.80;99.90;;;;;;5024050;28;20194;-65
2022/01/02 01:12:23;;;;;;;13.90;5.53;;;7.80;99.90;;;;;;5023565;28;20181;-64
2022/01/02 01:14:50;;;;;;;9.43;5.63;;;7.90;99.90;;;;;;5023507;28;20188;-66
2022/01/02 01:17:16;;;;;;;10.63;5.30;;;7.80;99.90;;;;;;5023526;28;20304;-68
2022/01/02 01:19:43;;;;;;;12.97;5.30;;;7.90;99.90;;;;;;5020383;28;20745;-65
2022/01/02 01:22:08;;;;;;;8.03;5.53;;;7.80;99.90;;;;;;5018476;28;20200;-66
2022/01/02 01:24:35;;;;;;;9.67;5.43;;;7.80;99.90;;;;;;5018885;28;20181;-65
2022/01/02 01:27:04;;;;;;;10.03;5.10;;;7.90;99.90;;;;;;5018969;28;20280;-69
2022/01/02 01:29:34;;;;;;;8.73;5.70;;;7.90;99.90;;;;;;5023590;28;20189;-66
2022/01/02 01:32:01;;;;;;;9.40;5.23;;;7.90;99.90;;;;;;5018712;28;20177;-65
2022/01/02 01:34:27;;;;;;;8.23;5.17;;;7.90;99.90;;;;;;5017847;28;20232;-70
2022/01/02 01:36:52;;;;;;;8.87;4.70;;;7.80;99.90;;;;;;5023983;28;21437;-64
2022/01/02 01:39:18;;;;;;;10.80;5.73;;;7.60;99.90;;;;;;5017907;28;20177;-64
2022/01/02 01:41:46;;;;;;;11.20;6.10;;;7.60;99.90;;;;;;5017654;28;20287;-66
2022/01/02 01:46:39;;;;;;;11.10;5.97;;;7.60;99.90;;;;;;5015638;28;20189;-74
2022/01/02 01:49:22;;;;;;;8.53;5.20;;;7.60;99.90;;;;;;5015712;28;20188;-63
2022/01/02 01:51:48;;;;;;;9.30;5.27;;;7.50;99.90;;;;;;5014142;28;20193;-65
2022/01/02 01:54:15;;;;;;;8.80;4.77;;;7.60;99.90;;;;;;5016287;28;20234;-64
2022/01/02 01:56:42;;;;;;;10.67;6.03;;;7.50;99.90;;;;;;5021721;28;20216;-64
2022/01/02 01:59:07;;;;;;;11.70;5.03;;;7.50;99.90;;;;;;5027975;28;20188;-65
2022/01/02 02:01:33;;;;;;;9.13;4.70;;;7.40;99.90;;;;;;5022752;28;20524;-67
2022/01/02 02:03:59;;;;;;;7.50;4.83;;;7.30;99.90;;;;;;5023687;28;20195;-64
2022/01/02 02:06:25;;;;;;;8.63;5.00;;;7.20;99.90;;;;;;5020477;28;20266;-70
2022/01/02 02:08:54;;;;;;;6.33;4.77;;;7.40;99.90;;;;;;5018863;28;20215;-68
2022/01/02 02:11:22;;;;;;;13.17;5.27;;;7.40;99.90;;;;;;5015448;28;20183;-68
2022/01/02 02:13:48;;;;;;;14.57;6.37;;;7.60;99.90;;;;;;5021119;28;20345;-64
2022/01/02 02:16:14;;;;;;;11.47;6.00;;;7.60;99.90;;;;;;5018322;28;20216;-66
2022/01/02 02:18:39;;;;;;;9.37;5.50;;;7.60;99.90;;;;;;5019296;28;20522;-66
2022/01/02 02:21:05;;;;;;;9.73;4.47;;;7.60;99.90;;;;;;5019922;28;20940;-66
2022/01/02 02:23:31;;;;;;;7.43;4.97;;;7.70;99.90;;;;;;5019154;28;20266;-70
2022/01/02 02:25:57;;;;;;;12.20;5.37;;;7.70;99.90;;;;;;5015283;28;20280;-64
2022/01/02 02:28:26;;;;;;;8.40;5.03;;;7.60;99.90;;;;;;5015946;28;20274;-64
2022/01/02 02:30:52;;;;;;;7.93;5.30;;;7.70;99.90;;;;;;5017348;28;20185;-63
2022/01/02 02:33:18;;;;;;;11.97;4.67;;;7.50;99.90;;;;;;5016642;28;20306;-65
2022/01/02 02:35:46;;;;;;;13.13;4.90;;;7.30;99.90;;;;;;5017396;28;20220;-68
2022/01/02 02:38:13;;;;;;;7.83;4.87;;;7.30;99.90;;;;;;5017592;28;20268;-68
2022/01/02 02:40:40;;;;;;;6.87;4.53;;;7.40;99.90;;;;;;5019290;28;20241;-64
2022/01/02 02:51:16;;;;;;;7.37;4.87;;;7.10;99.90;;;;;;5016042;28;20214;-70
2022/01/02 02:53:48;;;;;;;10.67;4.77;;;7.10;99.90;;;;;;5016308;28;20277;-66
2022/01/02 02:56:18;;;;;;;6.10;4.40;;;7.00;99.90;;;;;;5023268;28;20247;-64
2022/01/02 02:58:44;;;;;;;8.27;4.60;;;7.10;99.90;;;;;;5017773;28;20186;-64
2022/01/02 03:01:14;;;;;;;7.23;4.27;;;7.10;99.90;;;;;;5014989;28;20189;-64
2022/01/02 03:03:40;;;;;;;8.00;4.40;;;7.10;99.90;;;;;;5016011;28;20192;-65
2022/01/02 03:06:06;;;;;;;9.97;5.10;;;7.20;99.90;;;;;;5017547;28;20545;-67
2022/01/02 03:08:33;;;;;;;7.27;4.60;;;7.10;99.90;;;;;;5018443;28;20250;-63
2022/01/02 03:10:59;;;;;;;8.00;4.13;;;7.20;99.90;;;;;;5014632;28;20192;-65
2022/01/02 03:13:25;;;;;;;10.07;4.43;;;7.10;99.90;;;;;;5016502;28;20192;-65
2022/01/02 03:15:51;;;;;;;8.17;5.10;;;7.20;99.90;;;;;;5017900;28;20312;-69
2022/01/02 03:18:17;;;;;;;8.67;4.87;;;7.20;99.90;;;;;;5017518;28;20185;-64
2022/01/02 03:20:43;;;;;;;8.77;4.83;;;7.20;99.90;;;;;;5016796;28;20274;-71
2022/01/02 03:23:08;;;;;;;9.10;4.20;;;7.10;99.90;;;;;;5020101;28;20176;-64
2022/01/02 03:25:34;;;;;;;7.40;5.03;;;7.20;99.90;;;;;;5018957;28;20188;-64
2022/01/02 03:28:00;;;;;;;7.20;4.83;;;7.10;99.90;;;;;;5018196;28;20225;-64
2022/01/02 03:30:25;;;;;;;8.20;5.17;;;7.20;99.90;;;;;;5016761;28;20189;-65
2022/01/02 03:32:51;;;;;;;8.63;4.60;;;7.10;99.90;;;;;;5014632;28;20706;-65
2022/01/02 03:35:16;;;;;;;7.07;5.10;;;7.10;99.90;;;;;;5018572;28;20261;-67
2022/01/02 03:37:43;;;;;;;7.13;4.67;;;7.10;99.90;;;;;;5017846;28;20299;-65
2022/01/02 03:40:10;;;;;;;9.63;5.50;;;7.20;99.90;;;;;;5014929;28;20180;-64
2022/01/02 03:42:36;;;;;;;8.13;5.07;;;7.10;99.90;;;;;;5019453;28;20215;-65
2022/01/02 03:45:04;;;;;;;10.53;5.27;;;7.10;99.90;;;;;;5017380;28;20189;-67
2022/01/02 03:47:30;;;;;;;8.00;4.70;;;6.90;99.90;;;;;;5021298;28;20663;-64
2022/01/02 03:49:59;;;;;;;9.13;4.77;;;7.00;99.90;;;;;;5021638;28;20198;-64
2022/01/02 03:52:25;;;;;;;7.47;4.30;;;7.00;99.90;;;;;;5021208;28;20692;-65
2022/01/02 03:54:51;;;;;;;9.87;5.30;;;7.10;99.90;;;;;;5023067;28;20189;-68
2022/01/02 03:57:16;;;;;;;8.40;5.07;;;7.10;99.90;;;;;;5022332;28;20751;-64
2022/01/02 03:59:42;;;;;;;8.93;5.53;;;7.10;99.90;;;;;;5020618;28;20197;-64
2022/01/02 04:02:08;;;;;;;6.47;4.77;;;7.00;99.90;;;;;;5021051;28;20708;-64
2022/01/02 04:04:34;;;;;;;8.60;4.60;;;7.20;99.90;;;;;;5021449;28;20189;-64
2022/01/02 04:07:00;;;;;;;6.47;4.47;;;7.20;99.90;;;;;;5024802;28;20243;-64
2022/01/02 04:09:25;;;;;;;11.50;5.30;;;7.00;99.90;;;;;;5024965;28;20196;-64
2022/01/02 04:11:51;;;;;;;7.27;4.27;;;7.10;99.90;;;;;;5021982;28;20713;-66
2022/01/02 04:14:16;;;;;;;13.03;4.77;;;7.10;99.90;;;;;;5027599;28;20270;-66
2022/01/02 04:16:42;;;;;;;6.70;4.33;;;7.10;99.90;;;;;;5021019;28;20223;-65
2022/01/02 04:19:08;;;;;;;11.00;4.57;;;7.10;99.90;;;;;;5034812;28;20188;-64
2022/01/02 04:21:33;;;;;;;7.90;4.90;;;7.10;99.90;;;;;;5020441;28;20212;-71
2022/01/02 04:23:59;;;;;;;7.90;5.10;;;7.00;99.90;;;;;;5018902;28;20467;-64
2022/01/02 04:26:25;;;;;;;7.87;5.20;;;7.00;99.90;;;;;;5024993;28;20194;-66
2022/01/02 04:28:51;;;;;;;9.63;4.50;;;7.10;99.90;;;;;;5022002;28;20372;-69
2022/01/02 04:31:16;;;;;;;9.63;5.13;;;7.10;99.90;;;;;;5022957;28;20184;-65
2022/01/02 04:33:42;;;;;;;12.60;5.13;;;7.10;99.90;;;;;;5019249;28;20237;-64
2022/01/02 04:36:07;;;;;;;7.43;5.27;;;7.20;99.90;;;;;;5022326;28;20677;-66
2022/01/02 04:38:35;;;;;;;7.23;4.57;;;7.20;99.90;;;;;;5021580;28;20829;-64
2022/01/02 04:41:00;;;;;;;8.73;5.50;;;7.20;99.90;;;;;;5020061;28;20272;-64
2022/01/02 04:43:26;;;;;;;7.30;4.33;;;7.20;99.90;;;;;;5022896;28;20594;-65
2022/01/02 04:45:52;;;;;;;11.10;4.97;;;7.20;99.90;;;;;;5022419;28;20239;-64
2022/01/02 04:48:17;;;;;;;9.33;5.03;;;7.10;99.90;;;;;;5024208;28;20177;-64
2022/01/02 04:50:43;;;;;;;8.27;4.77;;;7.10;99.90;;;;;;5023360;28;20199;-67
2022/01/02 04:53:08;;;;;;;7.63;5.20;;;7.10;99.90;;;;;;5022721;28;20200;-65
2022/01/02 04:55:34;;;;;;;8.20;4.70;;;7.10;99.90;;;;;;5027636;28;20195;-66
2022/01/02 04:58:01;;;;;;;11.07;4.53;;;7.10;99.90;;;;;;5029115;28;20192;-66
2022/01/02 05:00:26;;;;;;;8.93;4.80;;;7.10;99.90;;;;;;5023487;28;20516;-66
2022/01/02 05:02:52;;;;;;;7.47;4.57;;;7.10;99.90;;;;;;5027168;28;20296;-66
2022/01/02 05:05:18;;;;;;;8.70;4.73;;;7.10;99.90;;;;;;5014888;28;20529;-65
2022/01/02 05:07:44;;;;;;;7.60;5.27;;;7.00;99.90;;;;;;5019612;28;20200;-64
2022/01/02 05:10:10;;;;;;;13.37;4.47;;;7.00;99.90;;;;;;5018110;28;20234;-64
2022/01/02 05:12:36;;;;;;;8.17;4.40;;;6.90;99.90;;;;;;5018459;28;20601;-63
2022/01/02 05:15:02;;;;;;;7.73;4.10;;;6.90;99.90;;;;;;5016415;28;20185;-63
2022/01/02 05:17:28;;;;;;;9.07;4.47;;;6.80;99.90;;;;;;5018185;28;20311;-67
2022/01/02 05:19:54;;;;;;;7.97;4.40;;;6.80;99.90;;;;;;5016664;28;20649;-67
2022/01/02 05:22:19;;;;;;;9.37;4.50;;;6.80;99.90;;;;;;5018796;28;20191;-64
2022/01/02 05:24:45;;;;;;;7.80;4.23;;;6.90;99.90;;;;;;5019254;28;20193;-64
2022/01/02 05:27:10;;;;;;;8.43;4.50;;;6.90;99.90;;;;;;5018675;28;20192;-65
2022/01/02 05:29:36;;;;;;;13.40;4.80;;;6.90;99.90;;;;;;5015563;28;20185;-64
2022/01/02 05:32:02;;;;;;;6.23;4.00;;;7.00;99.90;;;;;;5012879;28;20212;-67
2022/01/02 05:34:28;;;;;;;8.90;5.03;;;7.00;99.90;;;;;;5014958;28;20272;-65
2022/01/02 05:36:53;;;;;;;6.43;4.30;;;6.90;99.90;;;;;;5019518;28;20224;-64
2022/01/02 05:39:20;;;;;;;6.67;4.17;;;6.90;99.90;;;;;;5020514;28;20183;-65
2022/01/02 05:41:47;;;;;;;7.43;4.57;;;6.90;99.90;;;;;;5025404;28;25411;-67
2022/01/02 05:44:13;;;;;;;12.60;5.00;;;6.90;99.90;;;;;;5018268;28;20204;-65
2022/01/02 05:46:40;;;;;;;9.50;5.20;;;6.90;99.90;;;;;;5018550;28;20191;-65
2022/01/02 05:49:05;;;;;;;7.00;4.80;;;6.90;99.90;;;;;;5017817;28;20198;-66
2022/01/02 05:51:31;;;;;;;6.10;4.03;;;7.00;99.90;;;;;;5016467;28;20197;-64
2022/01/02 05:53:56;;;;;;;6.17;4.27;;;6.90;99.90;;;;;;5018908;28;20193;-65
2022/01/02 05:56:22;;;;;;;8.53;4.70;;;7.00;99.90;;;;;;5018166;28;20263;-70
2022/01/02 05:58:48;;;;;;;10.03;4.83;;;7.20;99.90;;;;;;5019055;28;20194;-68
2022/01/02 06:01:13;;;;;;;10.17;4.67;;;7.20;99.90;;;;;;5020281;28;20247;-64
2022/01/02 06:03:39;;;;;;;9.40;5.10;;;7.20;99.90;;;;;;5019399;28;20493;-65
2022/01/02 06:06:05;;;;;;;9.20;4.57;;;7.30;99.90;;;;;;5018810;28;20294;-66
2022/01/02 06:08:30;;;;;;;8.97;4.40;;;7.40;99.90;;;;;;5021409;28;20186;-65
2022/01/02 06:10:56;;;;;;;5.87;4.33;;;7.40;99.90;;;;;;5021142;28;20200;-65
2022/01/02 06:13:22;;;;;;;6.80;3.90;;;7.50;99.90;;;;;;5018984;28;20216;-64
2022/01/02 06:15:48;;;;;;;5.83;4.07;;;7.60;99.90;;;;;;5015107;28;20216;-64
2022/01/02 06:18:14;;;;;;;6.90;3.80;;;7.70;99.90;;;;;;5022510;28;20545;-64
2022/01/02 06:20:40;;;;;;;7.33;4.23;;;7.80;99.90;;;;;;5018775;28;20182;-66
2022/01/02 06:23:05;;;;;;;7.03;4.33;;;7.90;99.90;;;;;;5017571;28;20204;-66
2022/01/02 06:25:31;;;;;;;5.67;3.70;;;8.00;99.90;;;;;;5019372;28;20199;-67
2022/01/02 06:27:56;;;;;;;6.63;4.07;;;8.00;99.90;;;;;;5014919;28;20229;-70
2022/01/02 06:30:23;;;;;;;5.50;3.93;;;8.00;99.90;;;;;;5016030;28;20228;-68
2022/01/02 06:32:54;;;;;;;6.97;4.23;;;8.00;99.90;;;;;;5019282;28;20243;-66
2022/01/02 06:35:32;;;;;;;9.83;4.77;;;8.00;99.90;;;;;;5017207;28;20200;-70
2022/01/02 06:37:58;;;;;;;7.47;4.40;;;8.00;99.90;;;;;;5018252;28;20208;-64
2022/01/02 06:40:25;;;;;;;6.30;4.53;;;8.00;99.90;;;;;;5019383;28;20541;-65
2022/01/02 06:42:51;;;;;;;4.80;3.83;;;8.00;99.90;;;;;;5017163;28;20196;-69
2022/01/02 06:45:17;;;;;;;6.57;4.37;;;7.90;99.90;;;;;;5019490;28;20199;-70
2022/01/02 06:47:43;;;;;;;8.03;4.50;;;7.80;99.90;;;;;;5019468;28;20204;-67
2022/01/02 06:50:11;;;;;;;6.63;4.53;;;7.80;99.90;;;;;;5021471;28;20638;-64
2022/01/02 06:52:37;;;;;;;7.13;4.27;;;7.80;99.90;;;;;;5016499;28;20601;-64
2022/01/02 06:55:03;;;;;;;5.83;3.90;;;7.80;99.90;;;;;;5017660;28;20218;-72
2022/01/02 06:57:29;;;;;;;8.67;4.90;;;7.90;99.90;;;;;;5017608;28;20268;-67
2022/01/02 06:59:54;;;;;;;12.20;4.60;;;8.00;99.90;;;;;;5017274;28;20271;-64
2022/01/02 07:02:20;;;;;;;8.00;3.90;;;7.90;99.90;;;;;;5019741;28;20204;-64
2022/01/02 07:04:45;;;;;;;12.00;4.90;;;8.00;99.90;;;;;;5019126;28;20182;-66
2022/01/02 07:07:11;;;;;;;6.30;4.10;;;8.10;99.90;;;;;;5021005;28;20703;-69
2022/01/02 07:09:37;;;;;;;6.73;4.17;;;8.10;99.90;;;;;;5019809;28;20191;-65
2022/01/02 07:12:03;;;;;;;6.83;4.63;;;8.20;99.90;;;;;;5017129;28;20189;-68
2022/01/02 07:14:30;;;;;;;9.17;4.80;;;8.20;99.90;;;;;;5018139;28;20275;-64
2022/01/02 07:17:00;;;;;;;6.80;4.83;;;8.30;99.90;;;;;;5014771;28;20236;-68
2022/01/02 07:19:26;;;;;;;6.47;4.93;;;8.20;99.90;;;;;;5015659;28;20207;-64
2022/01/02 07:21:52;;;;;;;8.80;5.03;;;8.20;99.90;;;;;;5014652;28;20184;-71
2022/01/02 07:24:18;;;;;;;7.07;4.47;;;8.10;99.90;;;;;;5023653;28;20189;-63
2022/01/02 07:26:44;;;;;;;9.37;4.23;;;8.20;99.90;;;;;;5025636;28;20197;-64
2022/01/02 07:29:11;;;;;;;10.33;4.50;;;8.10;99.90;;;;;;5025633;28;20280;-64
2022/01/02 07:31:37;;;;;;;6.23;4.43;;;8.20;99.90;;;;;;5023968;28;20177;-64
2022/01/02 07:34:04;;;;;;;5.47;4.43;;;8.20;99.90;;;;;;5026539;28;20236;-67
2022/01/02 07:36:30;;;;;;;8.47;4.97;;;8.20;99.90;;;;;;5025463;28;20219;-64
2022/01/02 07:38:57;;;;;;;7.30;4.47;;;8.20;99.90;;;;;;5023930;28;20187;-63
2022/01/02 07:41:23;;;;;;;8.73;4.77;;;8.20;99.90;;;;;;5026126;28;20227;-65
2022/01/02 07:43:49;;;;;;;9.90;4.43;;;8.10;99.90;;;;;;5030203;28;20188;-64
2022/01/02 07:46:14;;;;;;;5.90;4.10;;;8.20;99.90;;;;;;5028367;28;20195;-64
2022/01/02 07:48:41;;;;;;;7.83;4.97;;;8.30;99.90;;;;;;5024714;28;20264;-64
2022/01/02 07:51:06;;;;;;;6.60;4.57;;;8.30;99.90;;;;;;5026440;28;20271;-63
2022/01/02 07:53:32;;;;;;;7.57;4.70;;;8.20;99.90;;;;;;5023402;28;20644;-66
2022/01/02 07:55:57;;;;;;;11.13;4.70;;;8.20;99.90;;;;;;5025131;28;20220;-63
2022/01/02 07:58:23;;;;;;;7.43;4.40;;;8.20;99.90;;;;;;5019848;28;20659;-69
2022/01/02 08:00:50;;;;;;;9.53;4.63;;;8.30;99.90;;;;;;5021469;28;20263;-67
2022/01/02 08:03:16;;;;;;;10.03;4.60;;;8.30;99.90;;;;;;5024243;28;20215;-64
2022/01/02 08:05:43;;;;;;;7.83;4.47;;;8.40;99.90;;;;;;5025958;28;20614;-66
2022/01/02 08:08:08;;;;;;;10.37;5.20;;;8.40;99.90;;;;;;5022805;28;20196;-63
2022/01/02 08:10:34;;;;;;;9.37;4.97;;;8.60;99.90;;;;;;5020802;28;20216;-63
2022/01/02 08:13:00;;;;;;;6.33;4.73;;;8.40;99.90;;;;;;5024056;28;20253;-66
2022/01/02 08:15:25;;;;;;;8.47;4.63;;;8.40;99.90;;;;;;5021392;28;20214;-64
2022/01/02 08:17:51;;;;;;;5.80;4.40;;;8.40;99.90;;;;;;5022245;28;20231;-66
2022/01/02 08:20:17;;;;;;;6.77;4.07;;;8.40;99.90;;;;;;5022686;28;20197;-64
2022/01/02 08:22:42;;;;;;;7.27;4.53;;;8.40;99.90;;;;;;5020926;28;20197;-65
2022/01/02 08:25:09;;;;;;;5.97;3.73;;;8.60;99.90;;;;;;5031822;28;20193;-71
2022/01/02 08:27:34;;;;;;;7.87;4.63;;;8.60;99.90;;;;;;5030342;28;20238;-64
2022/01/02 08:30:00;;;;;;;8.13;4.47;;;8.70;99.90;;;;;;5024201;28;20196;-64
2022/01/02 08:32:26;;;;;;;6.53;5.03;;;8.60;99.90;;;;;;5024800;28;20228;-66
2022/01/02 08:34:51;;;;;;;7.70;4.13;;;8.60;99.90;;;;;;5022668;28;20327;-71
2022/01/02 08:37:17;;;;;;;7.77;4.37;;;8.70;99.90;;;;;;5021252;28;20661;-67
2022/01/02 08:39:44;;;;;;;6.10;4.23;;;8.70;99.90;;;;;;5025632;28;20903;-69
2022/01/02 08:42:11;;;;;;;7.73;4.57;;;8.80;99.90;;;;;;5021396;28;20543;-67
2022/01/02 08:44:38;;;;;;;7.37;4.73;;;8.80;99.90;;;;;;5020206;28;20656;-71
2022/01/02 08:47:04;;;;;;;8.77;4.60;;;8.80;99.90;;;;;;5019829;28;20185;-66
2022/01/02 08:49:30;;;;;;;9.50;4.07;;;8.90;99.90;;;;;;5022461;28;20558;-70
2022/01/02 08:51:55;;;;;;;7.40;4.93;;;8.90;99.90;;;;;;5022300;28;20189;-66
2022/01/02 08:54:22;;;;;;;8.20;4.60;;;9.00;99.90;;;;;;5021172;28;20298;-69
2022/01/02 08:56:47;;;;;;;7.13;5.03;;;9.10;99.90;;;;;;5018104;28;20215;-73
2022/01/02 08:59:13;;;;;;;6.10;4.37;;;9.10;99.90;;;;;;5019002;28;20196;-68
2022/01/02 09:01:38;;;;;;;8.80;4.73;;;9.10;99.90;;;;;;5020800;28;20188;-68
2022/01/02 09:04:04;;;;;;;7.27;4.50;;;9.20;99.90;;;;;;5022282;28;20196;-68
2022/01/02 09:06:30;;;;;;;9.37;5.07;;;9.20;99.90;;;;;;5020045;28;20201;-67
2022/01/02 09:08:55;;;;;;;6.93;4.63;;;9.20;99.90;;;;;;5022065;28;20184;-67
2022/01/02 09:11:22;;;;;;;7.70;4.87;;;9.20;99.90;;;;;;5023161;28;20200;-72
2022/01/02 09:13:47;;;;;;;8.30;4.77;;;9.20;99.90;;;;;;5025891;28;20547;-67
2022/01/02 09:16:13;;;;;;;8.67;5.27;;;9.20;99.90;;;;;;5021429;28;20213;-71
2022/01/02 09:18:39;;;;;;;9.13;4.93;;;9.30;99.90;;;;;;5020079;28;20231;-68
2022/01/02 09:21:05;;;;;;;11.43;5.33;;;9.40;99.90;;;;;;5020215;28;20252;-68
2022/01/02 09:23:30;;;;;;;7.07;4.37;;;9.40;99.90;;;;;;5019628;28;20212;-67
2022/01/02 09:25:56;;;;;;;9.70;4.47;;;9.40;99.90;;;;;;5024181;28;20205;-66
2022/01/02 09:28:22;;;;;;;7.23;5.10;;;9.50;99.90;;;;;;5018634;28;20241;-67
2022/01/02 09:30:48;;;;;;;13.20;5.87;;;9.70;99.90;;;;;;5016771;28;20189;-69
2022/01/02 09:33:13;;;;;;;12.00;5.27;;;9.60;99.90;;;;;;5019185;28;25055;-66
2022/01/02 09:35:41;;;;;;;9.07;4.30;;;9.70;99.90;;;;;;5020271;28;20192;-66
2022/01/02 09:38:10;;;;;;;7.03;4.87;;;9.80;99.90;;;;;;5018699;28;20186;-68
2022/01/02 09:40:36;;;;;;;6.70;4.87;;;9.80;99.90;;;;;;5020487;28;20201;-66
2022/01/02 09:43:02;;;;;;;7.10;4.93;;;9.80;99.90;;;;;;5019663;28;20181;-70
2022/01/02 09:45:33;;;;;;;11.73;5.90;;;9.80;99.90;;;;;;5019699;28;20555;-65
2022/01/02 09:47:59;;;;;;;8.77;5.83;;;9.80;99.90;;;;;;5019647;28;20189;-73
2022/01/02 09:50:25;;;;;;;10.47;5.27;;;9.90;99.90;;;;;;5019579;28;20181;-66
2022/01/02 09:52:51;;;;;;;11.07;4.97;;;9.70;99.90;;;;;;5017521;28;20544;-68
2022/01/02 09:55:17;;;;;;;9.70;6.23;;;10.00;99.90;;;;;;5019981;28;20204;-67
2022/01/02 09:57:48;;;;;;;8.07;4.97;;;10.10;99.90;;;;;;5017871;28;20205;-66
2022/01/02 10:00:14;;;;;;;8.43;5.10;;;10.10;99.90;;;;;;5023757;28;20200;-66
2022/01/02 10:02:59;;;;;;;6.80;4.27;;;10.10;99.90;;;;;;5018529;28;20676;-67
2022/01/02 10:05:26;;;;;;;10.27;4.53;;;10.20;99.90;;;;;;5016603;28;20201;-69
2022/01/02 10:07:52;;;;;;;6.73;4.50;;;10.20;99.90;;;;;;5014571;28;20247;-65
2022/01/02 10:10:18;;;;;;;9.90;4.80;;;10.20;99.90;;;;;;5014073;28;20253;-66
2022/01/02 10:12:44;;;;;;;14.33;5.50;;;10.30;99.90;;;;;;5014789;28;20198;-65
2022/01/02 10:15:15;;;;;;;8.77;5.33;;;10.30;99.90;;;;;;5019748;28;20189;-65
2022/01/02 10:18:02;;;;;;;10.13;5.37;;;10.30;99.90;;;;;;5018074;28;20284;-66
2022/01/02 10:20:31;;;;;;;8.73;5.10;;;10.30;99.90;;;;;;5019086;28;20246;-64
2022/01/02 10:23:16;;;;;;;7.53;5.00;;;10.30;99.90;;;;;;5021385;28;20688;-66
2022/01/02 10:25:55;;;;;;;7.33;4.80;;;10.30;99.90;;;;;;5020122;28;20235;-64
2022/01/02 10:28:26;;;;;;;9.57;5.67;;;10.40;99.90;;;;;;5022758;28;20193;-65
2022/01/02 10:31:03;;;;;;;8.40;5.13;;;10.50;99.90;;;;;;5023395;28;20178;-67
2022/01/02 10:33:51;;;;;;;7.43;5.20;;;10.50;99.90;;;;;;5020786;28;20290;-65
2022/01/02 10:36:36;;;;;;;8.63;5.63;;;10.40;99.90;;;;;;5022213;28;20208;-66
2022/01/02 10:39:19;;;;;;;8.93;5.43;;;10.30;99.90;;;;;;5025348;28;20535;-66
2022/01/02 10:41:47;;;;;;;8.43;5.30;;;10.50;99.90;;;;;;5022330;28;20299;-66
2022/01/02 10:44:34;;;;;;;8.77;5.27;;;10.50;99.90;;;;;;5022488;28;20190;-66
2022/01/02 10:47:09;;;;;;;6.77;5.10;;;10.50;99.90;;;;;;5021555;28;20202;-65
2022/01/02 10:50:04;;;;;;;6.77;4.63;;;10.60;99.90;;;;;;5023618;28;20271;-68
2022/01/02 10:52:31;;;;;;;8.27;5.20;;;10.70;99.90;;;;;;5023499;28;20181;-64
2022/01/02 10:55:00;;;;;;;10.07;5.53;;;10.70;99.90;;;;;;5016722;28;20208;-67
2022/01/02 10:57:26;;;;;;;9.63;5.30;;;10.80;99.90;;;;;;5020050;28;20219;-64
2022/01/02 10:59:58;;;;;;;11.83;5.13;;;10.80;99.90;;;;;;5020918;28;20188;-66
2022/01/02 11:02:25;;;;;;;8.23;5.03;;;10.80;99.90;;;;;;5024514;28;20200;-67
2022/01/02 11:05:04;;;;;;;9.23;5.67;;;10.80;99.90;;;;;;5023712;28;20219;-67
2022/01/02 11:07:50;;;;;;;6.90;4.70;;;10.80;99.90;;;;;;5021715;28;21139;-67
2022/01/02 11:10:21;;;;;;;8.20;5.27;;;10.80;99.90;;;;;;5026764;28;20197;-68
2022/01/02 11:12:48;;;;;;;10.03;4.80;;;10.80;99.90;;;;;;5022156;28;20641;-69
2022/01/02 11:15:16;;;;;;;9.40;5.70;;;10.80;99.90;;;;;;5021489;28;20292;-69
2022/01/02 11:17:42;;;;;;;6.97;4.80;;;10.70;99.90;;;;;;5018987;28;20218;-66
2022/01/02 11:20:14;;;;;;;7.37;4.83;;;10.70;99.90;;;;;;5018663;28;20187;-67
2022/01/02 11:23:14;;;;;;;11.00;5.80;;;10.70;99.90;;;;;;5019349;28;20682;-65
2022/01/02 11:26:03;;;;;;;9.93;5.20;;;10.70;99.90;;;;;;5013761;28;20231;-65
2022/01/02 11:28:35;;;;;;;8.83;5.17;;;10.70;99.90;;;;;;5019930;28;20283;-65
2022/01/02 11:31:02;;;;;;;15.50;6.77;;;10.70;99.90;;;;;;5015824;28;20512;-72
2022/01/02 11:33:40;;;;;;;11.30;5.80;;;10.60;99.90;;;;;;5016595;28;20873;-65
2022/01/02 11:36:30;;;;;;;11.00;5.67;;;10.60;99.90;;;;;;5018194;28;20212;-66
2022/01/02 11:39:07;;;;;;;10.13;5.70;;;10.60;99.90;;;;;;5015609;28;20713;-67
2022/01/02 11:41:35;;;;;;;8.37;5.97;;;10.60;99.90;;;;;;5012256;28;20193;-63
2022/01/02 11:44:00;;;;;;;15.63;8.30;;;10.50;99.90;;;;;;5013168;28;20192;-64
2022/01/02 11:46:36;;;;;;;10.47;6.57;;;10.50;99.90;;;;;;5014235;28;20271;-68
2022/01/02 11:49:05;;;;;;;9.13;6.93;;;10.70;99.90;;;;;;5019625;28;20196;-65
2022/01/02 11:51:59;;;;;;;8.33;5.80;;;10.50;99.90;;;;;;5014538;28;20224;-67
2022/01/02 11:54:40;;;;;;;8.40;5.47;;;10.50;99.90;;;;;;5019634;28;20185;-64
2022/01/02 11:57:12;;;;;;;9.57;6.30;;;10.50;99.90;;;;;;5019877;28;20215;-65
2022/01/02 11:59:43;;;;;;;8.27;5.37;;;10.50;99.90;;;;;;5019325;28;20877;-68
2022/01/02 12:02:17;;;;;;;9.67;6.47;;;10.50;99.90;;;;;;5024895;28;20280;-74
2022/01/02 12:05:19;;;;;;;11.30;6.40;;;10.50;99.90;;;;;;5023733;28;20250;-66
2022/01/02 12:07:50;;;;;;;10.20;6.77;;;10.50;99.90;;;;;;5028375;28;20231;-66
2022/01/02 12:10:16;;;;;;;10.27;5.80;;;10.40;99.90;;;;;;5032191;28;20812;-66
2022/01/02 12:13:00;;;;;;;12.17;6.37;;;10.60;99.90;;;;;;5025757;28;20188;-67
2022/01/02 12:15:34;;;;;;;13.07;8.57;;;10.60;99.90;;;;;;5021019;28;20193;-68
2022/01/02 12:18:23;;;;;;;10.10;6.03;;;10.60;99.90;;;;;;5025583;28;20271;-65
2022/01/02 12:20:52;;;;;;;9.40;5.27;;;10.60;99.90;;;;;;5022495;28;20188;-66
2022/01/02 12:23:30;;;;;;;10.17;6.17;;;10.60;99.90;;;;;;5020594;28;20323;-67
2022/01/02 12:26:02;;;;;;;8.73;5.57;;;10.60;99.90;;;;;;5023396;28;20243;-64
2022/01/02 12:28:36;;;;;;;14.37;5.80;;;10.50;99.90;;;;;;5019609;28;20202;-64
2022/01/02 12:31:03;;;;;;;10.70;6.27;;;10.50;99.90;;;;;;5021310;28;20523;-67
2022/01/02 12:33:30;;;;;;;13.37;8.60;;;10.40;99.90;;;;;;5027104;28;20256;-64
2022/01/02 12:35:56;;;;;;;8.87;5.63;;;10.40;99.90;;;;;;5028510;28;20174;-66
2022/01/02 12:38:22;;;;;;;11.07;5.87;;;10.30;99.90;;;;;;5024010;28;20189;-66
2022/01/02 12:40:49;;;;;;;11.30;6.43;;;10.40;99.90;;;;;;5024677;28;20236;-64
2022/01/02 12:43:22;;;;;;;22.70;12.63;;;10.40;99.90;;;;;;5021788;28;20268;-66
2022/01/02 12:45:54;;;;;;;11.70;6.10;;;10.40;99.90;;;;;;5022453;28;20304;-64
2022/01/02 12:48:34;;;;;;;10.10;5.97;;;10.30;99.90;;;;;;5022623;28;20192;-65
2022/01/02 12:51:10;;;;;;;8.77;6.17;;;10.30;99.90;;;;;;5023808;28;20202;-64
2022/01/02 12:53:37;;;;;;;16.50;7.93;;;10.40;99.90;;;;;;5027025;28;20624;-68
2022/01/02 12:56:03;;;;;;;13.93;8.33;;;10.40;99.90;;;;;;5025152;28;20235;-66
2022/01/02 12:58:31;;;;;;;11.93;6.73;;;10.50;99.90;;;;;;5027543;28;20529;-66
2022/01/02 13:01:06;;;;;;;10.60;6.37;;;10.50;99.90;;;;;;5030071;28;20178;-67
2022/01/02 13:03:32;;;;;;;7.37;5.50;;;10.50;99.90;;;;;;5029072;28;20214;-65
2022/01/02 13:06:00;;;;;;;11.83;5.93;;;10.50;99.90;;;;;;5025517;28;20197;-65
2022/01/02 13:08:26;;;;;;;15.80;9.97;;;10.60;99.90;;;;;;5021170;28;20641;-65